sensor_id;sensor_type;location;lat;lon;timestamp;P1;durP1;ratioP1;P2;durP2;ratioP2
52866;SDS011;38739;53.324;6.862;2022-08-27T00:02:01;6.20;;;1.50;;
52866;SDS011;38739;53.324;6.862;2022-08-27T00:04:28;7.60;;;1.63;;
52866;SDS011;38739;53.324;6.862;2022-08-27T00:06:54;7.72;;;1.50;;
52866;SDS011;38739;53.324;6.862;2022-08-27T00:09:20;4.88;;;1.42;;
52866;SDS011;38739;53.324;6.862;2022-08-27T00:11:46;5.10;;;1.60;;
52866;SDS011;38739;53.324;6.862;2022-08-27T00:14:12;5.97;;;1.50;;
52866;SDS011;38739;53.324;6.862;2022-08-27T00:16:38;9.52;;;1.55;;
52866;SDS011;38739;53.324;6.862;2022-08-27T00:19:03;4.82;;;1.40;;
52866;SDS011;38739;53.324;6.862;2022-08-27T00:21:29;7.30;;;1.50;;
52866;SDS011;38739;53.324;6.862;2022-08-27T00:23:57;5.70;;;1.67;;
52866;SDS011;38739;53.324;6.862;2022-08-27T00:26:23;5.47;;;1.40;;
52866;SDS011;38739;53.324;6.862;2022-08-27T00:28:49;6.28;;;1.83;;
52866;SDS011;38739;53.324;6.862;2022-08-27T00:31:15;6.18;;;1.80;;
52866;SDS011;38739;53.324;6.862;2022-08-27T00:33:41;5.53;;;1.60;;
52866;SDS011;38739;53.324;6.862;2022-08-27T00:36:07;4.60;;;1.60;;
52866;SDS011;38739;53.324;6.862;2022-08-27T00:38:34;5.57;;;1.83;;
52866;SDS011;38739;53.324;6.862;2022-08-27T00:41:01;8.98;;;1.67;;
52866;SDS011;38739;53.324;6.862;2022-08-27T00:43:28;7.45;;;2.08;;
52866;SDS011;38739;53.324;6.862;2022-08-27T00:46:07;4.72;;;1.88;;
52866;SDS011;38739;53.324;6.862;2022-08-27T00:48:40;8.40;;;1.90;;
52866;SDS011;38739;53.324;6.862;2022-08-27T00:51:06;6.78;;;1.58;;
52866;SDS011;38739;53.324;6.862;2022-08-27T00:53:32;6.20;;;1.48;;
52866;SDS011;38739;53.324;6.862;2022-08-27T00:56:06;5.22;;;1.50;;
52866;SDS011;38739;53.324;6.862;2022-08-27T00:58:36;8.57;;;2.00;;
52866;SDS011;38739;53.324;6.862;2022-08-27T01:01:15;5.18;;;1.77;;
52866;SDS011;38739;53.324;6.862;2022-08-27T01:03:44;4.65;;;1.73;;
52866;SDS011;38739;53.324;6.862;2022-08-27T01:06:12;5.35;;;1.25;;
52866;SDS011;38739;53.324;6.862;2022-08-27T01:08:41;9.18;;;2.35;;
52866;SDS011;38739;53.324;6.862;2022-08-27T01:11:11;5.97;;;1.73;;
52866;SDS011;38739;53.324;6.862;2022-08-27T01:13:37;6.10;;;1.77;;
52866;SDS011;38739;53.324;6.862;2022-08-27T01:16:04;6.25;;;1.55;;
52866;SDS011;38739;53.324;6.862;2022-08-27T01:18:31;4.60;;;1.65;;
52866;SDS011;38739;53.324;6.862;2022-08-27T01:21:09;8.85;;;1.58;;
52866;SDS011;38739;53.324;6.862;2022-08-27T01:23:59;10.05;;;1.60;;
52866;SDS011;38739;53.324;6.862;2022-08-27T01:26:45;7.40;;;1.88;;
52866;SDS011;38739;53.324;6.862;2022-08-27T01:29:11;8.63;;;1.70;;
52866;SDS011;38739;53.324;6.862;2022-08-27T01:31:38;5.63;;;1.60;;
52866;SDS011;38739;53.324;6.862;2022-08-27T01:34:04;7.75;;;1.73;;
52866;SDS011;38739;53.324;6.862;2022-08-27T01:36:31;6.85;;;1.70;;
52866;SDS011;38739;53.324;6.862;2022-08-27T01:38:57;3.97;;;1.30;;
52866;SDS011;38739;53.324;6.862;2022-08-27T01:41:23;4.95;;;1.60;;
52866;SDS011;38739;53.324;6.862;2022-08-27T01:43:50;5.45;;;1.35;;
52866;SDS011;38739;53.324;6.862;2022-08-27T01:46:22;5.35;;;1.63;;
52866;SDS011;38739;53.324;6.862;2022-08-27T01:48:50;7.32;;;1.73;;
52866;SDS011;38739;53.324;6.862;2022-08-27T01:51:16;4.97;;;1.40;;
52866;SDS011;38739;53.324;6.862;2022-08-27T01:53:42;6.50;;;1.73;;
52866;SDS011;38739;53.324;6.862;2022-08-27T01:56:07;7.22;;;1.60;;
52866;SDS011;38739;53.324;6.862;2022-08-27T01:58:33;5.30;;;1.67;;
52866;SDS011;38739;53.324;6.862;2022-08-27T02:01:01;7.45;;;1.58;;
52866;SDS011;38739;53.324;6.862;2022-08-27T02:03:34;6.45;;;1.92;;
52866;SDS011;38739;53.324;6.862;2022-08-27T02:06:03;5.00;;;1.38;;
52866;SDS011;38739;53.324;6.862;2022-08-27T02:08:30;6.43;;;1.65;;
52866;SDS011;38739;53.324;6.862;2022-08-27T02:10:56;7.63;;;1.88;;
52866;SDS011;38739;53.324;6.862;2022-08-27T02:13:22;8.68;;;1.50;;
52866;SDS011;38739;53.324;6.862;2022-08-27T02:15:48;5.40;;;1.85;;
52866;SDS011;38739;53.324;6.862;2022-08-27T02:18:13;6.00;;;1.83;;
52866;SDS011;38739;53.324;6.862;2022-08-27T02:20:40;4.80;;;1.30;;
52866;SDS011;38739;53.324;6.862;2022-08-27T02:23:08;5.13;;;1.90;;
52866;SDS011;38739;53.324;6.862;2022-08-27T02:25:34;7.40;;;2.03;;
52866;SDS011;38739;53.324;6.862;2022-08-27T02:28:00;8.23;;;1.85;;
52866;SDS011;38739;53.324;6.862;2022-08-27T02:30:27;7.15;;;1.95;;
52866;SDS011;38739;53.324;6.862;2022-08-27T02:32:53;8.73;;;2.10;;
52866;SDS011;38739;53.324;6.862;2022-08-27T02:35:21;8.90;;;2.10;;
52866;SDS011;38739;53.324;6.862;2022-08-27T02:37:48;3.55;;;1.67;;
52866;SDS011;38739;53.324;6.862;2022-08-27T02:40:14;7.88;;;2.45;;
52866;SDS011;38739;53.324;6.862;2022-08-27T02:42:42;6.57;;;1.90;;
52866;SDS011;38739;53.324;6.862;2022-08-27T02:45:08;7.35;;;2.33;;
52866;SDS011;38739;53.324;6.862;2022-08-27T02:47:35;5.18;;;2.00;;
52866;SDS011;38739;53.324;6.862;2022-08-27T02:50:01;7.30;;;2.20;;
52866;SDS011;38739;53.324;6.862;2022-08-27T02:52:28;7.43;;;2.55;;
52866;SDS011;38739;53.324;6.862;2022-08-27T02:54:54;6.60;;;2.42;;
52866;SDS011;38739;53.324;6.862;2022-08-27T02:57:21;9.40;;;2.38;;
52866;SDS011;38739;53.324;6.862;2022-08-27T02:59:47;5.32;;;2.10;;
52866;SDS011;38739;53.324;6.862;2022-08-27T03:02:13;5.32;;;1.80;;
52866;SDS011;38739;53.324;6.862;2022-08-27T03:04:39;8.95;;;2.47;;
52866;SDS011;38739;53.324;6.862;2022-08-27T03:07:06;5.82;;;1.92;;
52866;SDS011;38739;53.324;6.862;2022-08-27T03:09:31;8.90;;;1.92;;
52866;SDS011;38739;53.324;6.862;2022-08-27T03:11:58;7.85;;;2.17;;
52866;SDS011;38739;53.324;6.862;2022-08-27T03:14:25;7.57;;;1.80;;
52866;SDS011;38739;53.324;6.862;2022-08-27T03:16:51;8.63;;;2.10;;
52866;SDS011;38739;53.324;6.862;2022-08-27T03:19:17;6.45;;;1.90;;
52866;SDS011;38739;53.324;6.862;2022-08-27T03:21:42;7.95;;;2.05;;
52866;SDS011;38739;53.324;6.862;2022-08-27T03:24:08;5.10;;;1.63;;
52866;SDS011;38739;53.324;6.862;2022-08-27T03:26:34;8.00;;;2.03;;
52866;SDS011;38739;53.324;6.862;2022-08-27T03:29:00;5.78;;;1.90;;
52866;SDS011;38739;53.324;6.862;2022-08-27T03:31:26;6.75;;;2.40;;
52866;SDS011;38739;53.324;6.862;2022-08-27T03:34:02;8.45;;;2.50;;
52866;SDS011;38739;53.324;6.862;2022-08-27T03:36:31;4.63;;;2.00;;
52866;SDS011;38739;53.324;6.862;2022-08-27T03:38:57;9.60;;;2.50;;
52866;SDS011;38739;53.324;6.862;2022-08-27T03:41:23;6.88;;;2.28;;
52866;SDS011;38739;53.324;6.862;2022-08-27T03:43:49;7.28;;;2.30;;
52866;SDS011;38739;53.324;6.862;2022-08-27T03:46:17;7.38;;;1.98;;
52866;SDS011;38739;53.324;6.862;2022-08-27T03:48:44;5.35;;;1.70;;
52866;SDS011;38739;53.324;6.862;2022-08-27T03:51:11;6.78;;;1.75;;
52866;SDS011;38739;53.324;6.862;2022-08-27T03:53:39;7.65;;;1.85;;
52866;SDS011;38739;53.324;6.862;2022-08-27T03:56:07;7.25;;;1.90;;
52866;SDS011;38739;53.324;6.862;2022-08-27T03:58:33;6.60;;;1.85;;
52866;SDS011;38739;53.324;6.862;2022-08-27T04:01:00;10.18;;;2.20;;
52866;SDS011;38739;53.324;6.862;2022-08-27T04:03:26;6.10;;;1.83;;
52866;SDS011;38739;53.324;6.862;2022-08-27T04:05:53;8.85;;;2.30;;
52866;SDS011;38739;53.324;6.862;2022-08-27T04:08:19;11.05;;;2.40;;
52866;SDS011;38739;53.324;6.862;2022-08-27T04:10:47;7.00;;;2.22;;
52866;SDS011;38739;53.324;6.862;2022-08-27T04:13:14;8.38;;;2.00;;
52866;SDS011;38739;53.324;6.862;2022-08-27T04:15:45;8.80;;;2.33;;
52866;SDS011;38739;53.324;6.862;2022-08-27T04:18:12;4.97;;;2.28;;
52866;SDS011;38739;53.324;6.862;2022-08-27T04:20:41;7.32;;;2.10;;
52866;SDS011;38739;53.324;6.862;2022-08-27T04:23:08;7.90;;;2.17;;
52866;SDS011;38739;53.324;6.862;2022-08-27T04:25:34;6.57;;;2.40;;
52866;SDS011;38739;53.324;6.862;2022-08-27T04:28:03;6.15;;;2.25;;
52866;SDS011;38739;53.324;6.862;2022-08-27T04:30:29;10.90;;;2.08;;
52866;SDS011;38739;53.324;6.862;2022-08-27T04:32:55;5.45;;;2.08;;
52866;SDS011;38739;53.324;6.862;2022-08-27T04:35:22;7.85;;;3.25;;
52866;SDS011;38739;53.324;6.862;2022-08-27T04:37:48;8.65;;;3.13;;
52866;SDS011;38739;53.324;6.862;2022-08-27T04:40:13;9.15;;;2.33;;
52866;SDS011;38739;53.324;6.862;2022-08-27T04:42:39;5.35;;;2.10;;
52866;SDS011;38739;53.324;6.862;2022-08-27T04:45:05;6.88;;;2.30;;
52866;SDS011;38739;53.324;6.862;2022-08-27T04:47:31;7.10;;;2.47;;
52866;SDS011;38739;53.324;6.862;2022-08-27T04:49:57;7.32;;;2.22;;
52866;SDS011;38739;53.324;6.862;2022-08-27T04:52:23;6.30;;;2.30;;
52866;SDS011;38739;53.324;6.862;2022-08-27T04:54:49;7.18;;;2.40;;
52866;SDS011;38739;53.324;6.862;2022-08-27T04:57:15;7.13;;;2.10;;
52866;SDS011;38739;53.324;6.862;2022-08-27T04:59:41;9.00;;;2.30;;
52866;SDS011;38739;53.324;6.862;2022-08-27T05:02:07;8.32;;;2.63;;
52866;SDS011;38739;53.324;6.862;2022-08-27T05:04:34;11.05;;;2.30;;
52866;SDS011;38739;53.324;6.862;2022-08-27T05:07:02;7.85;;;2.75;;
52866;SDS011;38739;53.324;6.862;2022-08-27T05:09:28;10.50;;;2.75;;
52866;SDS011;38739;53.324;6.862;2022-08-27T05:11:54;5.80;;;2.97;;
52866;SDS011;38739;53.324;6.862;2022-08-27T05:14:20;7.43;;;3.40;;
52866;SDS011;38739;53.324;6.862;2022-08-27T05:16:48;7.90;;;3.38;;
52866;SDS011;38739;53.324;6.862;2022-08-27T05:19:13;12.13;;;2.90;;
52866;SDS011;38739;53.324;6.862;2022-08-27T05:21:42;9.70;;;2.67;;
52866;SDS011;38739;53.324;6.862;2022-08-27T05:24:13;12.10;;;2.97;;
52866;SDS011;38739;53.324;6.862;2022-08-27T05:26:40;8.00;;;2.70;;
52866;SDS011;38739;53.324;6.862;2022-08-27T05:29:06;10.85;;;2.92;;
52866;SDS011;38739;53.324;6.862;2022-08-27T05:31:32;9.77;;;3.00;;
52866;SDS011;38739;53.324;6.862;2022-08-27T05:33:58;10.38;;;3.70;;
52866;SDS011;38739;53.324;6.862;2022-08-27T05:36:29;6.57;;;3.13;;
52866;SDS011;38739;53.324;6.862;2022-08-27T05:38:57;6.68;;;2.80;;
52866;SDS011;38739;53.324;6.862;2022-08-27T05:41:26;7.85;;;2.50;;
52866;SDS011;38739;53.324;6.862;2022-08-27T05:43:55;6.75;;;2.55;;
52866;SDS011;38739;53.324;6.862;2022-08-27T05:46:22;11.93;;;2.70;;
52866;SDS011;38739;53.324;6.862;2022-08-27T05:48:50;10.13;;;2.90;;
52866;SDS011;38739;53.324;6.862;2022-08-27T05:51:18;8.70;;;2.60;;
52866;SDS011;38739;53.324;6.862;2022-08-27T05:54:03;10.27;;;3.30;;
52866;SDS011;38739;53.324;6.862;2022-08-27T05:56:32;9.35;;;3.63;;
52866;SDS011;38739;53.324;6.862;2022-08-27T05:58:59;11.50;;;2.92;;
52866;SDS011;38739;53.324;6.862;2022-08-27T06:01:45;8.90;;;2.25;;
52866;SDS011;38739;53.324;6.862;2022-08-27T06:04:14;6.78;;;2.08;;
52866;SDS011;38739;53.324;6.862;2022-08-27T06:06:41;4.82;;;2.28;;
52866;SDS011;38739;53.324;6.862;2022-08-27T06:09:09;7.40;;;2.35;;
52866;SDS011;38739;53.324;6.862;2022-08-27T06:11:37;8.65;;;2.20;;
52866;SDS011;38739;53.324;6.862;2022-08-27T06:14:04;12.27;;;2.78;;
52866;SDS011;38739;53.324;6.862;2022-08-27T06:16:30;9.45;;;2.20;;
52866;SDS011;38739;53.324;6.862;2022-08-27T06:18:56;8.50;;;1.80;;
52866;SDS011;38739;53.324;6.862;2022-08-27T06:21:23;8.98;;;1.90;;
52866;SDS011;38739;53.324;6.862;2022-08-27T06:23:49;9.48;;;2.08;;
52866;SDS011;38739;53.324;6.862;2022-08-27T06:26:16;13.88;;;1.80;;
52866;SDS011;38739;53.324;6.862;2022-08-27T06:28:42;10.90;;;2.20;;
52866;SDS011;38739;53.324;6.862;2022-08-27T06:31:10;8.80;;;1.70;;
52866;SDS011;38739;53.324;6.862;2022-08-27T06:33:46;7.53;;;1.80;;
52866;SDS011;38739;53.324;6.862;2022-08-27T06:36:15;8.93;;;2.15;;
52866;SDS011;38739;53.324;6.862;2022-08-27T06:38:43;8.18;;;1.67;;
52866;SDS011;38739;53.324;6.862;2022-08-27T06:41:10;8.88;;;1.65;;
52866;SDS011;38739;53.324;6.862;2022-08-27T06:43:37;13.32;;;1.98;;
52866;SDS011;38739;53.324;6.862;2022-08-27T06:46:05;8.15;;;1.55;;
52866;SDS011;38739;53.324;6.862;2022-08-27T06:48:34;10.20;;;1.88;;
52866;SDS011;38739;53.324;6.862;2022-08-27T06:51:05;9.07;;;1.80;;
52866;SDS011;38739;53.324;6.862;2022-08-27T06:53:36;6.40;;;1.60;;
52866;SDS011;38739;53.324;6.862;2022-08-27T06:56:03;7.03;;;1.77;;
52866;SDS011;38739;53.324;6.862;2022-08-27T06:58:29;9.85;;;1.63;;
52866;SDS011;38739;53.324;6.862;2022-08-27T07:00:55;7.25;;;1.70;;
52866;SDS011;38739;53.324;6.862;2022-08-27T07:06:02;8.27;;;1.42;;
52866;SDS011;38739;53.324;6.862;2022-08-27T07:08:29;12.02;;;1.80;;
52866;SDS011;38739;53.324;6.862;2022-08-27T07:10:55;10.73;;;1.90;;
52866;SDS011;38739;53.324;6.862;2022-08-27T07:13:21;8.32;;;1.50;;
52866;SDS011;38739;53.324;6.862;2022-08-27T07:15:47;11.57;;;1.80;;
52866;SDS011;38739;53.324;6.862;2022-08-27T07:18:13;7.25;;;1.45;;
52866;SDS011;38739;53.324;6.862;2022-08-27T07:20:39;7.50;;;1.67;;
52866;SDS011;38739;53.324;6.862;2022-08-27T07:23:05;7.35;;;1.98;;
52866;SDS011;38739;53.324;6.862;2022-08-27T07:25:31;9.93;;;1.75;;
52866;SDS011;38739;53.324;6.862;2022-08-27T07:27:57;9.20;;;2.10;;
52866;SDS011;38739;53.324;6.862;2022-08-27T07:30:24;10.15;;;1.83;;
52866;SDS011;38739;53.324;6.862;2022-08-27T07:32:51;12.63;;;1.85;;
52866;SDS011;38739;53.324;6.862;2022-08-27T07:35:17;10.77;;;1.90;;
52866;SDS011;38739;53.324;6.862;2022-08-27T07:37:43;4.70;;;1.52;;
52866;SDS011;38739;53.324;6.862;2022-08-27T07:40:13;11.55;;;2.10;;
52866;SDS011;38739;53.324;6.862;2022-08-27T07:42:40;9.27;;;1.42;;
52866;SDS011;38739;53.324;6.862;2022-08-27T07:45:26;9.18;;;1.90;;
52866;SDS011;38739;53.324;6.862;2022-08-27T07:47:52;11.73;;;2.08;;
52866;SDS011;38739;53.324;6.862;2022-08-27T07:50:19;9.95;;;1.85;;
52866;SDS011;38739;53.324;6.862;2022-08-27T07:52:46;7.82;;;1.80;;
52866;SDS011;38739;53.324;6.862;2022-08-27T07:55:13;6.80;;;1.90;;
52866;SDS011;38739;53.324;6.862;2022-08-27T07:57:38;9.50;;;1.73;;
52866;SDS011;38739;53.324;6.862;2022-08-27T08:00:05;11.10;;;2.10;;
52866;SDS011;38739;53.324;6.862;2022-08-27T08:02:35;6.05;;;1.40;;
52866;SDS011;38739;53.324;6.862;2022-08-27T08:05:01;9.10;;;1.58;;
52866;SDS011;38739;53.324;6.862;2022-08-27T08:07:27;5.32;;;1.42;;
52866;SDS011;38739;53.324;6.862;2022-08-27T08:09:53;7.30;;;1.42;;
52866;SDS011;38739;53.324;6.862;2022-08-27T08:12:19;9.63;;;1.80;;
52866;SDS011;38739;53.324;6.862;2022-08-27T08:14:45;9.45;;;1.73;;
52866;SDS011;38739;53.324;6.862;2022-08-27T08:17:11;9.05;;;1.80;;
52866;SDS011;38739;53.324;6.862;2022-08-27T08:19:38;11.15;;;2.33;;
52866;SDS011;38739;53.324;6.862;2022-08-27T08:22:05;6.40;;;1.70;;
52866;SDS011;38739;53.324;6.862;2022-08-27T08:24:32;7.68;;;1.85;;
52866;SDS011;38739;53.324;6.862;2022-08-27T08:26:59;10.75;;;1.60;;
52866;SDS011;38739;53.324;6.862;2022-08-27T08:29:24;8.02;;;1.73;;
52866;SDS011;38739;53.324;6.862;2022-08-27T08:31:50;8.90;;;1.90;;
52866;SDS011;38739;53.324;6.862;2022-08-27T08:34:16;8.20;;;1.60;;
52866;SDS011;38739;53.324;6.862;2022-08-27T08:36:43;6.35;;;1.60;;
52866;SDS011;38739;53.324;6.862;2022-08-27T08:39:09;7.97;;;1.95;;
52866;SDS011;38739;53.324;6.862;2022-08-27T08:41:42;9.32;;;1.70;;
52866;SDS011;38739;53.324;6.862;2022-08-27T08:46:54;12.02;;;1.40;;
52866;SDS011;38739;53.324;6.862;2022-08-27T08:49:32;8.90;;;1.40;;
52866;SDS011;38739;53.324;6.862;2022-08-27T08:52:16;9.10;;;1.48;;
52866;SDS011;38739;53.324;6.862;2022-08-27T08:54:48;6.28;;;1.55;;
52866;SDS011;38739;53.324;6.862;2022-08-27T08:57:19;7.80;;;1.83;;
52866;SDS011;38739;53.324;6.862;2022-08-27T08:59:55;11.85;;;1.50;;
52866;SDS011;38739;53.324;6.862;2022-08-27T09:02:33;6.65;;;1.42;;
52866;SDS011;38739;53.324;6.862;2022-08-27T09:05:00;6.30;;;1.67;;
52866;SDS011;38739;53.324;6.862;2022-08-27T09:10:19;11.75;;;1.70;;
52866;SDS011;38739;53.324;6.862;2022-08-27T09:13:10;6.93;;;1.40;;
52866;SDS011;38739;53.324;6.862;2022-08-27T09:16:05;6.88;;;1.60;;
52866;SDS011;38739;53.324;6.862;2022-08-27T09:19:08;7.38;;;1.52;;
52866;SDS011;38739;53.324;6.862;2022-08-27T09:25:51;10.13;;;1.50;;
52866;SDS011;38739;53.324;6.862;2022-08-27T09:28:22;8.05;;;1.52;;
52866;SDS011;38739;53.324;6.862;2022-08-27T09:31:12;6.60;;;1.33;;
52866;SDS011;38739;53.324;6.862;2022-08-27T09:33:40;6.78;;;1.20;;
52866;SDS011;38739;53.324;6.862;2022-08-27T09:36:08;7.82;;;1.58;;
52866;SDS011;38739;53.324;6.862;2022-08-27T09:38:36;7.38;;;1.90;;
52866;SDS011;38739;53.324;6.862;2022-08-27T09:41:07;5.65;;;1.38;;
52866;SDS011;38739;53.324;6.862;2022-08-27T09:43:40;6.63;;;1.40;;
52866;SDS011;38739;53.324;6.862;2022-08-27T09:48:46;7.10;;;1.40;;
52866;SDS011;38739;53.324;6.862;2022-08-27T09:51:13;5.70;;;1.50;;
52866;SDS011;38739;53.324;6.862;2022-08-27T09:53:44;7.15;;;1.75;;
52866;SDS011;38739;53.324;6.862;2022-08-27T09:58:53;7.22;;;1.35;;
52866;SDS011;38739;53.324;6.862;2022-08-27T10:01:27;5.00;;;1.33;;
52866;SDS011;38739;53.324;6.862;2022-08-27T10:04:07;4.28;;;1.15;;
52866;SDS011;38739;53.324;6.862;2022-08-27T10:06:36;7.00;;;1.33;;
52866;SDS011;38739;53.324;6.862;2022-08-27T10:09:15;9.90;;;1.35;;
52866;SDS011;38739;53.324;6.862;2022-08-27T10:11:56;7.63;;;1.40;;
52866;SDS011;38739;53.324;6.862;2022-08-27T10:14:29;6.45;;;1.30;;
52866;SDS011;38739;53.324;6.862;2022-08-27T10:22:17;12.23;;;2.03;;
52866;SDS011;38739;53.324;6.862;2022-08-27T10:33:16;6.20;;;1.20;;
52866;SDS011;38739;53.324;6.862;2022-08-27T10:36:05;5.43;;;1.05;;
52866;SDS011;38739;53.324;6.862;2022-08-27T10:41:42;6.47;;;1.60;;
52866;SDS011;38739;53.324;6.862;2022-08-27T10:50:08;4.18;;;0.90;;
52866;SDS011;38739;53.324;6.862;2022-08-27T10:53:07;6.60;;;1.40;;
52866;SDS011;38739;53.324;6.862;2022-08-27T10:55:40;7.05;;;1.08;;
52866;SDS011;38739;53.324;6.862;2022-08-27T10:58:14;5.80;;;1.50;;
52866;SDS011;38739;53.324;6.862;2022-08-27T11:00:47;6.03;;;1.20;;
52866;SDS011;38739;53.324;6.862;2022-08-27T11:03:42;5.75;;;1.00;;
52866;SDS011;38739;53.324;6.862;2022-08-27T11:09:02;4.32;;;0.93;;
52866;SDS011;38739;53.324;6.862;2022-08-27T11:11:43;5.28;;;1.20;;
52866;SDS011;38739;53.324;6.862;2022-08-27T11:14:34;6.85;;;1.30;;
52866;SDS011;38739;53.324;6.862;2022-08-27T11:19:49;5.85;;;1.30;;
52866;SDS011;38739;53.324;6.862;2022-08-27T11:22:29;6.20;;;1.02;;
52866;SDS011;38739;53.324;6.862;2022-08-27T11:27:47;7.15;;;1.40;;
52866;SDS011;38739;53.324;6.862;2022-08-27T11:38:18;5.07;;;0.95;;
52866;SDS011;38739;53.324;6.862;2022-08-27T11:43:38;3.47;;;0.98;;
52866;SDS011;38739;53.324;6.862;2022-08-27T11:46:05;7.38;;;1.10;;
52866;SDS011;38739;53.324;6.862;2022-08-27T11:48:38;5.18;;;1.08;;
52866;SDS011;38739;53.324;6.862;2022-08-27T11:51:12;5.18;;;1.10;;
52866;SDS011;38739;53.324;6.862;2022-08-27T11:53:56;7.07;;;1.00;;
52866;SDS011;38739;53.324;6.862;2022-08-27T12:01:55;4.65;;;1.30;;
52866;SDS011;38739;53.324;6.862;2022-08-27T12:06:51;5.55;;;1.20;;
52866;SDS011;38739;53.324;6.862;2022-08-27T12:09:46;5.00;;;1.00;;
52866;SDS011;38739;53.324;6.862;2022-08-27T12:12:23;5.55;;;0.95;;
52866;SDS011;38739;53.324;6.862;2022-08-27T12:15:09;6.50;;;1.17;;
52866;SDS011;38739;53.324;6.862;2022-08-27T12:20:54;6.07;;;1.20;;
52866;SDS011;38739;53.324;6.862;2022-08-27T12:28:52;4.38;;;1.00;;
52866;SDS011;38739;53.324;6.862;2022-08-27T12:31:40;6.57;;;0.93;;
52866;SDS011;38739;53.324;6.862;2022-08-27T12:34:19;5.00;;;0.90;;
52866;SDS011;38739;53.324;6.862;2022-08-27T12:36:48;3.00;;;1.05;;
52866;SDS011;38739;53.324;6.862;2022-08-27T12:39:19;3.13;;;0.90;;
52866;SDS011;38739;53.324;6.862;2022-08-27T12:41:53;6.60;;;1.00;;
52866;SDS011;38739;53.324;6.862;2022-08-27T12:46:50;5.65;;;1.15;;
52866;SDS011;38739;53.324;6.862;2022-08-27T13:01:19;6.20;;;1.23;;
52866;SDS011;38739;53.324;6.862;2022-08-27T13:04:06;4.70;;;1.20;;
52866;SDS011;38739;53.324;6.862;2022-08-27T13:06:44;4.45;;;1.00;;
52866;SDS011;38739;53.324;6.862;2022-08-27T13:09:10;8.90;;;1.35;;
52866;SDS011;38739;53.324;6.862;2022-08-27T13:11:44;8.18;;;1.70;;
52866;SDS011;38739;53.324;6.862;2022-08-27T13:14:20;6.25;;;1.20;;
52866;SDS011;38739;53.324;6.862;2022-08-27T13:17:31;4.95;;;1.00;;
52866;SDS011;38739;53.324;6.862;2022-08-27T13:19:44;5.72;;;1.08;;
52866;SDS011;38739;53.324;6.862;2022-08-27T13:22:28;5.20;;;1.00;;
52866;SDS011;38739;53.324;6.862;2022-08-27T13:25:00;5.55;;;1.05;;
52866;SDS011;38739;53.324;6.862;2022-08-27T13:27:31;6.75;;;1.15;;
52866;SDS011;38739;53.324;6.862;2022-08-27T13:30:00;5.32;;;1.20;;
52866;SDS011;38739;53.324;6.862;2022-08-27T13:32:30;4.80;;;1.10;;
52866;SDS011;38739;53.324;6.862;2022-08-27T13:34:57;6.50;;;0.90;;
52866;SDS011;38739;53.324;6.862;2022-08-27T13:37:31;6.88;;;1.20;;
52866;SDS011;38739;53.324;6.862;2022-08-27T13:39:57;5.95;;;1.30;;
52866;SDS011;38739;53.324;6.862;2022-08-27T13:42:23;3.40;;;1.00;;
52866;SDS011;38739;53.324;6.862;2022-08-27T13:44:50;6.72;;;1.00;;
52866;SDS011;38739;53.324;6.862;2022-08-27T13:47:23;6.00;;;1.17;;
52866;SDS011;38739;53.324;6.862;2022-08-27T13:50:00;6.18;;;1.10;;
52866;SDS011;38739;53.324;6.862;2022-08-27T13:52:37;5.90;;;1.30;;
52866;SDS011;38739;53.324;6.862;2022-08-27T13:55:25;4.80;;;1.23;;
52866;SDS011;38739;53.324;6.862;2022-08-27T13:57:52;5.15;;;1.08;;
52866;SDS011;38739;53.324;6.862;2022-08-27T14:00:24;4.90;;;1.30;;
52866;SDS011;38739;53.324;6.862;2022-08-27T14:02:56;6.47;;;1.13;;
52866;SDS011;38739;53.324;6.862;2022-08-27T14:07:54;11.90;;;1.60;;
52866;SDS011;38739;53.324;6.862;2022-08-27T14:12:58;5.80;;;1.10;;
52866;SDS011;38739;53.324;6.862;2022-08-27T14:15:37;10.25;;;1.40;;
52866;SDS011;38739;53.324;6.862;2022-08-27T14:18:06;4.15;;;1.10;;
52866;SDS011;38739;53.324;6.862;2022-08-27T14:20:58;4.97;;;1.05;;
52866;SDS011;38739;53.324;6.862;2022-08-27T14:23:26;5.13;;;1.27;;
52866;SDS011;38739;53.324;6.862;2022-08-27T14:25:58;4.57;;;1.10;;
52866;SDS011;38739;53.324;6.862;2022-08-27T14:28:26;9.25;;;1.42;;
52866;SDS011;38739;53.324;6.862;2022-08-27T14:30:52;6.57;;;1.50;;
52866;SDS011;38739;53.324;6.862;2022-08-27T14:33:18;5.25;;;1.42;;
52866;SDS011;38739;53.324;6.862;2022-08-27T14:35:44;5.88;;;1.30;;
52866;SDS011;38739;53.324;6.862;2022-08-27T14:38:16;5.53;;;1.02;;
52866;SDS011;38739;53.324;6.862;2022-08-27T14:40:51;4.07;;;1.05;;
52866;SDS011;38739;53.324;6.862;2022-08-27T14:43:18;6.05;;;1.20;;
52866;SDS011;38739;53.324;6.862;2022-08-27T14:45:45;6.43;;;1.30;;
52866;SDS011;38739;53.324;6.862;2022-08-27T14:48:13;5.07;;;1.17;;
52866;SDS011;38739;53.324;6.862;2022-08-27T14:50:44;5.38;;;1.30;;
52866;SDS011;38739;53.324;6.862;2022-08-27T14:53:10;7.78;;;1.75;;
52866;SDS011;38739;53.324;6.862;2022-08-27T14:55:36;6.70;;;1.35;;
52866;SDS011;38739;53.324;6.862;2022-08-27T14:58:02;6.22;;;1.20;;
52866;SDS011;38739;53.324;6.862;2022-08-27T15:00:28;6.55;;;1.38;;
52866;SDS011;38739;53.324;6.862;2022-08-27T15:02:56;7.35;;;1.77;;
52866;SDS011;38739;53.324;6.862;2022-08-27T15:05:23;7.18;;;1.77;;
52866;SDS011;38739;53.324;6.862;2022-08-27T15:07:49;6.63;;;1.58;;
52866;SDS011;38739;53.324;6.862;2022-08-27T15:10:17;6.47;;;1.95;;
52866;SDS011;38739;53.324;6.862;2022-08-27T15:12:43;7.47;;;2.10;;
52866;SDS011;38739;53.324;6.862;2022-08-27T15:15:09;14.10;;;2.63;;
52866;SDS011;38739;53.324;6.862;2022-08-27T15:17:36;5.25;;;2.25;;
52866;SDS011;38739;53.324;6.862;2022-08-27T15:20:04;7.07;;;2.20;;
52866;SDS011;38739;53.324;6.862;2022-08-27T15:22:33;9.00;;;2.40;;
52866;SDS011;38739;53.324;6.862;2022-08-27T15:25:00;8.63;;;2.55;;
52866;SDS011;38739;53.324;6.862;2022-08-27T15:27:26;7.93;;;2.55;;
52866;SDS011;38739;53.324;6.862;2022-08-27T15:29:53;8.32;;;2.72;;
52866;SDS011;38739;53.324;6.862;2022-08-27T15:32:24;8.57;;;2.67;;
52866;SDS011;38739;53.324;6.862;2022-08-27T15:34:59;11.52;;;2.70;;
52866;SDS011;38739;53.324;6.862;2022-08-27T15:37:28;13.13;;;2.90;;
52866;SDS011;38739;53.324;6.862;2022-08-27T15:39:55;9.90;;;2.78;;
52866;SDS011;38739;53.324;6.862;2022-08-27T15:42:21;8.05;;;2.85;;
52866;SDS011;38739;53.324;6.862;2022-08-27T15:44:48;9.02;;;3.00;;
52866;SDS011;38739;53.324;6.862;2022-08-27T15:47:16;6.45;;;2.40;;
52866;SDS011;38739;53.324;6.862;2022-08-27T15:49:42;10.50;;;2.85;;
52866;SDS011;38739;53.324;6.862;2022-08-27T15:52:09;9.23;;;3.13;;
52866;SDS011;38739;53.324;6.862;2022-08-27T15:54:35;9.55;;;3.60;;
52866;SDS011;38739;53.324;6.862;2022-08-27T15:57:02;7.03;;;3.13;;
52866;SDS011;38739;53.324;6.862;2022-08-27T15:59:28;11.05;;;2.92;;
52866;SDS011;38739;53.324;6.862;2022-08-27T16:01:54;10.55;;;3.38;;
52866;SDS011;38739;53.324;6.862;2022-08-27T16:04:22;8.05;;;3.22;;
52866;SDS011;38739;53.324;6.862;2022-08-27T16:06:48;13.00;;;3.47;;
52866;SDS011;38739;53.324;6.862;2022-08-27T16:09:14;10.88;;;3.67;;
52866;SDS011;38739;53.324;6.862;2022-08-27T16:11:41;9.75;;;3.25;;
52866;SDS011;38739;53.324;6.862;2022-08-27T16:14:10;9.85;;;3.63;;
52866;SDS011;38739;53.324;6.862;2022-08-27T16:16:40;12.48;;;4.40;;
52866;SDS011;38739;53.324;6.862;2022-08-27T16:19:09;11.82;;;4.18;;
52866;SDS011;38739;53.324;6.862;2022-08-27T16:21:38;11.50;;;4.25;;
52866;SDS011;38739;53.324;6.862;2022-08-27T16:24:05;11.27;;;4.35;;
52866;SDS011;38739;53.324;6.862;2022-08-27T16:26:35;14.02;;;4.18;;
52866;SDS011;38739;53.324;6.862;2022-08-27T16:29:02;14.65;;;4.30;;
52866;SDS011;38739;53.324;6.862;2022-08-27T16:31:29;12.45;;;4.30;;
52866;SDS011;38739;53.324;6.862;2022-08-27T16:33:55;14.50;;;4.20;;
52866;SDS011;38739;53.324;6.862;2022-08-27T16:36:21;12.05;;;4.15;;